sensor_id;sensor_type;location;lat;lon;timestamp;P1;durP1;ratioP1;P2;durP2;ratioP2
63008;SDS011;49099;28.428;-16.488;2023-05-10T00:01:58;52.28;;;8.55;;
63008;SDS011;49099;28.428;-16.488;2023-05-10T00:04:25;49.15;;;8.50;;
63008;SDS011;49099;28.428;-16.488;2023-05-10T00:06:54;48.20;;;7.88;;
63008;SDS011;49099;28.428;-16.488;2023-05-10T00:09:21;40.83;;;7.68;;
63008;SDS011;49099;28.428;-16.488;2023-05-10T00:11:48;51.47;;;8.48;;
63008;SDS011;49099;28.428;-16.488;2023-05-10T00:14:16;51.92;;;8.23;;
63008;SDS011;49099;28.428;-16.488;2023-05-10T00:16:43;44.63;;;7.90;;
63008;SDS011;49099;28.428;-16.488;2023-05-10T00:19:10;45.90;;;8.25;;
63008;SDS011;49099;28.428;-16.488;2023-05-10T00:21:37;44.25;;;8.07;;
63008;SDS011;49099;28.428;-16.488;2023-05-10T00:24:05;64.05;;;8.50;;
63008;SDS011;49099;28.428;-16.488;2023-05-10T00:26:32;50.53;;;7.70;;
63008;SDS011;49099;28.428;-16.488;2023-05-10T00:28:59;50.30;;;8.38;;
63008;SDS011;49099;28.428;-16.488;2023-05-10T00:31:26;48.67;;;7.40;;
63008;SDS011;49099;28.428;-16.488;2023-05-10T00:33:53;46.15;;;7.88;;
63008;SDS011;49099;28.428;-16.488;2023-05-10T00:36:21;46.75;;;7.63;;
63008;SDS011;49099;28.428;-16.488;2023-05-10T00:38:48;45.88;;;8.23;;
63008;SDS011;49099;28.428;-16.488;2023-05-10T00:41:15;51.47;;;8.65;;
63008;SDS011;49099;28.428;-16.488;2023-05-10T00:43:42;50.08;;;7.93;;
63008;SDS011;49099;28.428;-16.488;2023-05-10T00:46:09;42.13;;;7.47;;
63008;SDS011;49099;28.428;-16.488;2023-05-10T00:48:37;49.28;;;8.70;;
63008;SDS011;49099;28.428;-16.488;2023-05-10T00:51:04;46.92;;;8.45;;
63008;SDS011;49099;28.428;-16.488;2023-05-10T00:53:32;46.30;;;8.07;;
63008;SDS011;49099;28.428;-16.488;2023-05-10T00:56:01;46.17;;;7.38;;
63008;SDS011;49099;28.428;-16.488;2023-05-10T00:58:29;51.53;;;8.30;;
63008;SDS011;49099;28.428;-16.488;2023-05-10T01:00:57;55.75;;;9.82;;
63008;SDS011;49099;28.428;-16.488;2023-05-10T01:03:25;44.53;;;7.85;;
63008;SDS011;49099;28.428;-16.488;2023-05-10T01:05:53;42.22;;;7.10;;
63008;SDS011;49099;28.428;-16.488;2023-05-10T01:08:20;53.55;;;8.32;;
63008;SDS011;49099;28.428;-16.488;2023-05-10T01:10:48;51.78;;;8.32;;
63008;SDS011;49099;28.428;-16.488;2023-05-10T01:13:23;53.17;;;8.82;;
63008;SDS011;49099;28.428;-16.488;2023-05-10T01:16:06;51.72;;;9.18;;
63008;SDS011;49099;28.428;-16.488;2023-05-10T01:18:35;42.60;;;7.65;;
63008;SDS011;49099;28.428;-16.488;2023-05-10T01:26:17;51.40;;;8.52;;
63008;SDS011;49099;28.428;-16.488;2023-05-10T01:35:12;53.72;;;9.00;;
63008;SDS011;49099;28.428;-16.488;2023-05-10T01:37:47;50.40;;;8.88;;
63008;SDS011;49099;28.428;-16.488;2023-05-10T01:40:29;45.53;;;8.13;;
63008;SDS011;49099;28.428;-16.488;2023-05-10T01:43:04;45.58;;;8.13;;
63008;SDS011;49099;28.428;-16.488;2023-05-10T01:45:39;45.47;;;8.13;;
63008;SDS011;49099;28.428;-16.488;2023-05-10T01:48:14;41.67;;;8.02;;
63008;SDS011;49099;28.428;-16.488;2023-05-10T01:50:43;54.00;;;8.88;;
63008;SDS011;49099;28.428;-16.488;2023-05-10T01:53:12;46.38;;;8.18;;
63008;SDS011;49099;28.428;-16.488;2023-05-10T01:55:45;42.33;;;8.05;;
63008;SDS011;49099;28.428;-16.488;2023-05-10T01:58:15;50.67;;;8.48;;
63008;SDS011;49099;28.428;-16.488;2023-05-10T02:00:47;42.75;;;7.95;;
63008;SDS011;49099;28.428;-16.488;2023-05-10T02:03:16;42.08;;;7.63;;
63008;SDS011;49099;28.428;-16.488;2023-05-10T02:05:47;53.85;;;8.68;;
63008;SDS011;49099;28.428;-16.488;2023-05-10T02:08:16;49.53;;;8.32;;
63008;SDS011;49099;28.428;-16.488;2023-05-10T02:10:44;48.63;;;7.80;;
63008;SDS011;49099;28.428;-16.488;2023-05-10T02:13:12;42.17;;;6.90;;
63008;SDS011;49099;28.428;-16.488;2023-05-10T02:15:40;41.83;;;8.00;;
63008;SDS011;49099;28.428;-16.488;2023-05-10T02:18:09;44.28;;;7.60;;
63008;SDS011;49099;28.428;-16.488;2023-05-10T02:20:38;45.65;;;7.93;;
63008;SDS011;49099;28.428;-16.488;2023-05-10T02:23:06;42.58;;;7.28;;
63008;SDS011;49099;28.428;-16.488;2023-05-10T02:25:35;43.25;;;7.93;;
63008;SDS011;49099;28.428;-16.488;2023-05-10T02:28:05;55.22;;;9.73;;
63008;SDS011;49099;28.428;-16.488;2023-05-10T02:30:33;53.58;;;9.30;;
63008;SDS011;49099;28.428;-16.488;2023-05-10T02:33:01;52.70;;;7.97;;
63008;SDS011;49099;28.428;-16.488;2023-05-10T02:35:31;57.28;;;8.85;;
63008;SDS011;49099;28.428;-16.488;2023-05-10T02:38:00;47.33;;;7.97;;
63008;SDS011;49099;28.428;-16.488;2023-05-10T02:40:27;43.60;;;7.53;;
63008;SDS011;49099;28.428;-16.488;2023-05-10T02:42:56;50.55;;;9.10;;
63008;SDS011;49099;28.428;-16.488;2023-05-10T02:45:27;48.22;;;8.63;;
63008;SDS011;49099;28.428;-16.488;2023-05-10T02:47:56;60.95;;;8.80;;
63008;SDS011;49099;28.428;-16.488;2023-05-10T02:50:25;47.47;;;8.30;;
63008;SDS011;49099;28.428;-16.488;2023-05-10T02:52:55;57.35;;;8.82;;
63008;SDS011;49099;28.428;-16.488;2023-05-10T02:55:35;51.75;;;8.63;;
63008;SDS011;49099;28.428;-16.488;2023-05-10T02:58:04;54.33;;;8.88;;
63008;SDS011;49099;28.428;-16.488;2023-05-10T03:00:32;46.70;;;8.23;;
63008;SDS011;49099;28.428;-16.488;2023-05-10T03:02:59;53.17;;;10.00;;
63008;SDS011;49099;28.428;-16.488;2023-05-10T03:05:26;46.97;;;8.63;;
63008;SDS011;49099;28.428;-16.488;2023-05-10T03:07:54;44.95;;;7.75;;
63008;SDS011;49099;28.428;-16.488;2023-05-10T03:10:24;38.03;;;7.60;;
63008;SDS011;49099;28.428;-16.488;2023-05-10T03:12:58;28.17;;;5.95;;
63008;SDS011;49099;28.428;-16.488;2023-05-10T03:15:42;32.92;;;6.18;;
63008;SDS011;49099;28.428;-16.488;2023-05-10T03:18:15;34.33;;;6.25;;
63008;SDS011;49099;28.428;-16.488;2023-05-10T03:21:03;40.55;;;7.15;;
63008;SDS011;49099;28.428;-16.488;2023-05-10T03:23:40;38.55;;;6.72;;
63008;SDS011;49099;28.428;-16.488;2023-05-10T03:26:09;39.95;;;6.30;;
63008;SDS011;49099;28.428;-16.488;2023-05-10T03:28:42;32.08;;;5.63;;
63008;SDS011;49099;28.428;-16.488;2023-05-10T03:31:10;36.95;;;6.72;;
63008;SDS011;49099;28.428;-16.488;2023-05-10T03:33:48;38.03;;;6.25;;
63008;SDS011;49099;28.428;-16.488;2023-05-10T03:36:16;34.30;;;5.55;;
63008;SDS011;49099;28.428;-16.488;2023-05-10T03:38:44;34.38;;;5.63;;
63008;SDS011;49099;28.428;-16.488;2023-05-10T03:41:12;28.65;;;5.97;;
63008;SDS011;49099;28.428;-16.488;2023-05-10T03:43:39;32.88;;;5.93;;
63008;SDS011;49099;28.428;-16.488;2023-05-10T03:46:07;35.53;;;6.78;;
63008;SDS011;49099;28.428;-16.488;2023-05-10T03:48:34;32.55;;;6.47;;
63008;SDS011;49099;28.428;-16.488;2023-05-10T03:51:01;32.15;;;6.45;;
63008;SDS011;49099;28.428;-16.488;2023-05-10T03:53:29;40.60;;;6.93;;
63008;SDS011;49099;28.428;-16.488;2023-05-10T03:55:56;40.33;;;7.03;;
63008;SDS011;49099;28.428;-16.488;2023-05-10T03:58:23;31.67;;;6.47;;
63008;SDS011;49099;28.428;-16.488;2023-05-10T04:00:50;46.72;;;7.88;;
63008;SDS011;49099;28.428;-16.488;2023-05-10T04:03:18;46.03;;;8.50;;
63008;SDS011;49099;28.428;-16.488;2023-05-10T04:05:45;34.40;;;6.38;;
63008;SDS011;49099;28.428;-16.488;2023-05-10T04:08:12;43.10;;;6.93;;
63008;SDS011;49099;28.428;-16.488;2023-05-10T04:10:39;37.50;;;6.72;;
63008;SDS011;49099;28.428;-16.488;2023-05-10T04:13:06;26.08;;;6.22;;
63008;SDS011;49099;28.428;-16.488;2023-05-10T04:15:34;34.88;;;6.18;;
63008;SDS011;49099;28.428;-16.488;2023-05-10T04:18:02;28.73;;;6.28;;
63008;SDS011;49099;28.428;-16.488;2023-05-10T04:20:32;29.13;;;5.40;;
63008;SDS011;49099;28.428;-16.488;2023-05-10T04:22:59;29.30;;;5.28;;
63008;SDS011;49099;28.428;-16.488;2023-05-10T04:25:26;24.77;;;5.53;;
63008;SDS011;49099;28.428;-16.488;2023-05-10T04:27:53;37.47;;;6.32;;
63008;SDS011;49099;28.428;-16.488;2023-05-10T04:30:20;39.08;;;6.75;;
63008;SDS011;49099;28.428;-16.488;2023-05-10T04:32:48;23.50;;;4.95;;
63008;SDS011;49099;28.428;-16.488;2023-05-10T04:35:16;27.40;;;5.75;;
63008;SDS011;49099;28.428;-16.488;2023-05-10T04:37:43;35.97;;;5.93;;
63008;SDS011;49099;28.428;-16.488;2023-05-10T04:40:10;26.70;;;5.40;;
63008;SDS011;49099;28.428;-16.488;2023-05-10T04:42:39;25.73;;;5.93;;
63008;SDS011;49099;28.428;-16.488;2023-05-10T04:45:07;24.15;;;5.30;;
63008;SDS011;49099;28.428;-16.488;2023-05-10T04:47:36;26.15;;;5.47;;
63008;SDS011;49099;28.428;-16.488;2023-05-10T04:50:03;31.38;;;5.93;;
63008;SDS011;49099;28.428;-16.488;2023-05-10T04:52:31;27.55;;;5.50;;
63008;SDS011;49099;28.428;-16.488;2023-05-10T04:54:58;27.70;;;6.15;;
63008;SDS011;49099;28.428;-16.488;2023-05-10T04:57:26;32.30;;;5.38;;
63008;SDS011;49099;28.428;-16.488;2023-05-10T04:59:53;27.85;;;5.50;;
63008;SDS011;49099;28.428;-16.488;2023-05-10T05:02:20;23.73;;;5.45;;
63008;SDS011;49099;28.428;-16.488;2023-05-10T05:04:47;26.42;;;5.32;;
63008;SDS011;49099;28.428;-16.488;2023-05-10T05:07:14;30.23;;;6.00;;
63008;SDS011;49099;28.428;-16.488;2023-05-10T05:09:41;28.25;;;6.10;;
63008;SDS011;49099;28.428;-16.488;2023-05-10T05:12:08;27.50;;;5.30;;
63008;SDS011;49099;28.428;-16.488;2023-05-10T05:14:40;26.08;;;5.38;;
63008;SDS011;49099;28.428;-16.488;2023-05-10T05:17:07;30.63;;;6.10;;
63008;SDS011;49099;28.428;-16.488;2023-05-10T05:19:35;24.92;;;4.70;;
63008;SDS011;49099;28.428;-16.488;2023-05-10T05:22:02;25.63;;;5.20;;
63008;SDS011;49099;28.428;-16.488;2023-05-10T05:24:29;31.00;;;5.20;;
63008;SDS011;49099;28.428;-16.488;2023-05-10T05:27:02;28.00;;;6.33;;
63008;SDS011;49099;28.428;-16.488;2023-05-10T05:29:29;32.97;;;6.15;;
63008;SDS011;49099;28.428;-16.488;2023-05-10T05:31:56;30.70;;;5.82;;
63008;SDS011;49099;28.428;-16.488;2023-05-10T05:34:24;31.00;;;6.30;;
63008;SDS011;49099;28.428;-16.488;2023-05-10T05:36:51;29.02;;;5.93;;
63008;SDS011;49099;28.428;-16.488;2023-05-10T05:39:18;27.95;;;5.30;;
63008;SDS011;49099;28.428;-16.488;2023-05-10T05:41:45;31.17;;;5.75;;
63008;SDS011;49099;28.428;-16.488;2023-05-10T05:44:13;29.30;;;5.65;;
63008;SDS011;49099;28.428;-16.488;2023-05-10T05:46:40;24.42;;;5.32;;
63008;SDS011;49099;28.428;-16.488;2023-05-10T05:49:07;31.48;;;6.30;;
63008;SDS011;49099;28.428;-16.488;2023-05-10T05:51:34;32.33;;;6.03;;
63008;SDS011;49099;28.428;-16.488;2023-05-10T05:54:02;27.67;;;5.82;;
63008;SDS011;49099;28.428;-16.488;2023-05-10T05:56:30;31.55;;;5.05;;
63008;SDS011;49099;28.428;-16.488;2023-05-10T05:58:58;28.20;;;5.50;;
63008;SDS011;49099;28.428;-16.488;2023-05-10T06:01:26;29.10;;;5.88;;
63008;SDS011;49099;28.428;-16.488;2023-05-10T06:03:54;30.90;;;5.82;;
63008;SDS011;49099;28.428;-16.488;2023-05-10T06:06:21;31.48;;;5.88;;
63008;SDS011;49099;28.428;-16.488;2023-05-10T06:08:48;27.60;;;5.63;;
63008;SDS011;49099;28.428;-16.488;2023-05-10T06:11:15;34.53;;;6.03;;
63008;SDS011;49099;28.428;-16.488;2023-05-10T06:13:42;35.15;;;5.95;;
63008;SDS011;49099;28.428;-16.488;2023-05-10T06:16:09;32.78;;;5.90;;
63008;SDS011;49099;28.428;-16.488;2023-05-10T06:18:37;34.50;;;6.05;;
63008;SDS011;49099;28.428;-16.488;2023-05-10T06:21:04;34.65;;;5.55;;
63008;SDS011;49099;28.428;-16.488;2023-05-10T06:23:31;25.60;;;5.15;;
63008;SDS011;49099;28.428;-16.488;2023-05-10T06:25:58;33.22;;;5.85;;
63008;SDS011;49099;28.428;-16.488;2023-05-10T06:28:25;30.35;;;5.63;;
63008;SDS011;49099;28.428;-16.488;2023-05-10T06:30:52;30.00;;;5.95;;
63008;SDS011;49099;28.428;-16.488;2023-05-10T06:33:19;35.78;;;6.63;;
63008;SDS011;49099;28.428;-16.488;2023-05-10T06:35:46;30.77;;;6.18;;
63008;SDS011;49099;28.428;-16.488;2023-05-10T06:38:13;39.08;;;6.57;;
63008;SDS011;49099;28.428;-16.488;2023-05-10T06:40:42;35.92;;;6.80;;
63008;SDS011;49099;28.428;-16.488;2023-05-10T06:43:09;35.47;;;6.15;;
63008;SDS011;49099;28.428;-16.488;2023-05-10T06:45:36;31.70;;;6.07;;
63008;SDS011;49099;28.428;-16.488;2023-05-10T06:48:03;32.35;;;6.28;;
63008;SDS011;49099;28.428;-16.488;2023-05-10T06:50:31;35.33;;;6.57;;
63008;SDS011;49099;28.428;-16.488;2023-05-10T06:52:58;35.92;;;6.18;;
63008;SDS011;49099;28.428;-16.488;2023-05-10T06:55:26;41.58;;;6.63;;
63008;SDS011;49099;28.428;-16.488;2023-05-10T06:57:56;45.45;;;7.13;;
63008;SDS011;49099;28.428;-16.488;2023-05-10T07:00:23;31.25;;;6.00;;
63008;SDS011;49099;28.428;-16.488;2023-05-10T07:02:51;51.42;;;8.13;;
63008;SDS011;49099;28.428;-16.488;2023-05-10T07:05:18;94.22;;;18.35;;
63008;SDS011;49099;28.428;-16.488;2023-05-10T07:07:46;86.03;;;14.48;;
63008;SDS011;49099;28.428;-16.488;2023-05-10T07:10:14;63.72;;;11.15;;
63008;SDS011;49099;28.428;-16.488;2023-05-10T07:12:41;63.05;;;9.55;;
63008;SDS011;49099;28.428;-16.488;2023-05-10T07:15:09;51.00;;;9.85;;
63008;SDS011;49099;28.428;-16.488;2023-05-10T07:17:36;66.97;;;10.32;;
63008;SDS011;49099;28.428;-16.488;2023-05-10T07:20:03;93.88;;;13.18;;
63008;SDS011;49099;28.428;-16.488;2023-05-10T07:22:31;69.70;;;11.85;;
63008;SDS011;49099;28.428;-16.488;2023-05-10T07:24:58;47.10;;;8.90;;
63008;SDS011;49099;28.428;-16.488;2023-05-10T07:27:25;41.50;;;6.97;;
63008;SDS011;49099;28.428;-16.488;2023-05-10T07:29:53;60.08;;;9.48;;
63008;SDS011;49099;28.428;-16.488;2023-05-10T07:32:21;77.90;;;11.75;;
63008;SDS011;49099;28.428;-16.488;2023-05-10T07:34:48;68.15;;;11.27;;
63008;SDS011;49099;28.428;-16.488;2023-05-10T07:37:15;37.78;;;7.55;;
63008;SDS011;49099;28.428;-16.488;2023-05-10T07:39:42;54.95;;;10.05;;
63008;SDS011;49099;28.428;-16.488;2023-05-10T07:42:09;60.08;;;9.23;;
63008;SDS011;49099;28.428;-16.488;2023-05-10T07:44:36;69.53;;;12.75;;
63008;SDS011;49099;28.428;-16.488;2023-05-10T07:47:03;70.78;;;12.40;;
63008;SDS011;49099;28.428;-16.488;2023-05-10T07:49:31;49.30;;;11.23;;
63008;SDS011;49099;28.428;-16.488;2023-05-10T07:51:58;62.78;;;12.20;;
63008;SDS011;49099;28.428;-16.488;2023-05-10T07:54:25;65.90;;;12.85;;
63008;SDS011;49099;28.428;-16.488;2023-05-10T07:56:52;57.72;;;12.18;;
63008;SDS011;49099;28.428;-16.488;2023-05-10T07:59:19;67.90;;;11.95;;
63008;SDS011;49099;28.428;-16.488;2023-05-10T08:01:46;63.22;;;11.82;;
63008;SDS011;49099;28.428;-16.488;2023-05-10T08:04:14;63.83;;;11.95;;
63008;SDS011;49099;28.428;-16.488;2023-05-10T08:06:41;49.25;;;9.20;;
63008;SDS011;49099;28.428;-16.488;2023-05-10T08:09:08;39.83;;;7.38;;
63008;SDS011;49099;28.428;-16.488;2023-05-10T08:11:35;33.55;;;7.47;;
63008;SDS011;49099;28.428;-16.488;2023-05-10T08:14:03;51.03;;;9.02;;
63008;SDS011;49099;28.428;-16.488;2023-05-10T08:16:30;46.92;;;8.85;;
63008;SDS011;49099;28.428;-16.488;2023-05-10T08:18:59;42.08;;;7.53;;
63008;SDS011;49099;28.428;-16.488;2023-05-10T08:21:26;39.97;;;7.32;;
63008;SDS011;49099;28.428;-16.488;2023-05-10T08:23:53;40.65;;;7.07;;
63008;SDS011;49099;28.428;-16.488;2023-05-10T08:26:20;43.45;;;7.30;;
63008;SDS011;49099;28.428;-16.488;2023-05-10T08:28:48;31.95;;;6.65;;
63008;SDS011;49099;28.428;-16.488;2023-05-10T08:31:15;39.03;;;7.00;;
63008;SDS011;49099;28.428;-16.488;2023-05-10T08:33:43;37.53;;;7.18;;
63008;SDS011;49099;28.428;-16.488;2023-05-10T08:36:10;36.13;;;6.18;;
63008;SDS011;49099;28.428;-16.488;2023-05-10T08:38:37;37.63;;;7.35;;
63008;SDS011;49099;28.428;-16.488;2023-05-10T08:41:05;41.90;;;7.40;;
63008;SDS011;49099;28.428;-16.488;2023-05-10T08:43:32;46.53;;;7.55;;
63008;SDS011;49099;28.428;-16.488;2023-05-10T08:46:02;41.33;;;7.53;;
63008;SDS011;49099;28.428;-16.488;2023-05-10T08:48:32;42.00;;;7.75;;
63008;SDS011;49099;28.428;-16.488;2023-05-10T08:51:02;36.00;;;6.60;;
63008;SDS011;49099;28.428;-16.488;2023-05-10T08:53:30;43.75;;;6.93;;
63008;SDS011;49099;28.428;-16.488;2023-05-10T08:56:02;41.28;;;7.28;;
63008;SDS011;49099;28.428;-16.488;2023-05-10T08:58:30;33.92;;;6.40;;
63008;SDS011;49099;28.428;-16.488;2023-05-10T09:00:57;49.10;;;8.02;;
63008;SDS011;49099;28.428;-16.488;2023-05-10T09:03:26;35.03;;;6.60;;
63008;SDS011;49099;28.428;-16.488;2023-05-10T09:05:53;36.55;;;6.68;;
63008;SDS011;49099;28.428;-16.488;2023-05-10T09:08:25;37.88;;;7.25;;
63008;SDS011;49099;28.428;-16.488;2023-05-10T09:10:56;33.90;;;6.80;;
63008;SDS011;49099;28.428;-16.488;2023-05-10T09:13:23;39.70;;;7.07;;
63008;SDS011;49099;28.428;-16.488;2023-05-10T09:15:52;38.75;;;6.78;;
63008;SDS011;49099;28.428;-16.488;2023-05-10T09:18:20;43.75;;;6.82;;
63008;SDS011;49099;28.428;-16.488;2023-05-10T09:20:48;36.63;;;6.95;;
63008;SDS011;49099;28.428;-16.488;2023-05-10T09:23:15;35.30;;;6.78;;
63008;SDS011;49099;28.428;-16.488;2023-05-10T09:25:42;38.72;;;6.82;;
63008;SDS011;49099;28.428;-16.488;2023-05-10T09:28:09;38.42;;;6.80;;
63008;SDS011;49099;28.428;-16.488;2023-05-10T09:30:37;36.90;;;6.43;;
63008;SDS011;49099;28.428;-16.488;2023-05-10T09:33:05;40.65;;;6.63;;
63008;SDS011;49099;28.428;-16.488;2023-05-10T09:35:33;37.65;;;6.13;;
63008;SDS011;49099;28.428;-16.488;2023-05-10T09:38:01;36.47;;;6.20;;
63008;SDS011;49099;28.428;-16.488;2023-05-10T09:40:30;41.83;;;6.85;;
63008;SDS011;49099;28.428;-16.488;2023-05-10T09:42:58;32.55;;;5.93;;
63008;SDS011;49099;28.428;-16.488;2023-05-10T09:45:31;31.70;;;5.80;;
63008;SDS011;49099;28.428;-16.488;2023-05-10T09:48:02;43.80;;;6.65;;
63008;SDS011;49099;28.428;-16.488;2023-05-10T09:50:30;36.65;;;5.88;;
63008;SDS011;49099;28.428;-16.488;2023-05-10T09:53:01;33.30;;;6.22;;
63008;SDS011;49099;28.428;-16.488;2023-05-10T09:58:06;35.58;;;6.32;;
63008;SDS011;49099;28.428;-16.488;2023-05-10T10:00:38;44.47;;;6.60;;
63008;SDS011;49099;28.428;-16.488;2023-05-10T10:03:11;30.42;;;5.30;;
63008;SDS011;49099;28.428;-16.488;2023-05-10T10:05:43;34.03;;;6.38;;
63008;SDS011;49099;28.428;-16.488;2023-05-10T10:08:11;36.65;;;6.15;;
63008;SDS011;49099;28.428;-16.488;2023-05-10T10:10:39;32.20;;;6.80;;
63008;SDS011;49099;28.428;-16.488;2023-05-10T10:13:07;40.42;;;5.80;;
63008;SDS011;49099;28.428;-16.488;2023-05-10T10:15:35;40.65;;;6.82;;
63008;SDS011;49099;28.428;-16.488;2023-05-10T10:18:02;35.08;;;6.03;;
63008;SDS011;49099;28.428;-16.488;2023-05-10T10:20:31;39.83;;;7.10;;
63008;SDS011;49099;28.428;-16.488;2023-05-10T10:22:58;38.88;;;6.10;;
63008;SDS011;49099;28.428;-16.488;2023-05-10T10:25:26;34.50;;;5.95;;
63008;SDS011;49099;28.428;-16.488;2023-05-10T10:33:05;36.92;;;6.82;;
63008;SDS011;49099;28.428;-16.488;2023-05-10T10:36:00;40.08;;;6.00;;
63008;SDS011;49099;28.428;-16.488;2023-05-10T10:41:28;37.78;;;6.90;;
63008;SDS011;49099;28.428;-16.488;2023-05-10T10:49:32;40.00;;;6.72;;
63008;SDS011;49099;28.428;-16.488;2023-05-10T10:52:15;37.67;;;6.93;;
63008;SDS011;49099;28.428;-16.488;2023-05-10T10:54:58;34.83;;;6.05;;
63008;SDS011;49099;28.428;-16.488;2023-05-10T11:00:44;34.90;;;6.38;;
63008;SDS011;49099;28.428;-16.488;2023-05-10T11:03:11;37.20;;;6.70;;
63008;SDS011;49099;28.428;-16.488;2023-05-10T11:05:45;33.63;;;6.38;;
63008;SDS011;49099;28.428;-16.488;2023-05-10T11:10:50;38.40;;;6.85;;
63008;SDS011;49099;28.428;-16.488;2023-05-10T11:13:26;35.60;;;6.25;;
63008;SDS011;49099;28.428;-16.488;2023-05-10T11:18:54;37.88;;;6.47;;
63008;SDS011;49099;28.428;-16.488;2023-05-10T11:21:50;31.92;;;5.40;;
63008;SDS011;49099;28.428;-16.488;2023-05-10T11:24:21;44.58;;;6.43;;
63008;SDS011;49099;28.428;-16.488;2023-05-10T11:26:50;37.10;;;5.88;;
63008;SDS011;49099;28.428;-16.488;2023-05-10T11:29:20;40.63;;;6.60;;
63008;SDS011;49099;28.428;-16.488;2023-05-10T11:31:48;45.03;;;7.03;;
63008;SDS011;49099;28.428;-16.488;2023-05-10T11:34:29;32.13;;;5.72;;
63008;SDS011;49099;28.428;-16.488;2023-05-10T11:37:00;50.13;;;7.43;;
63008;SDS011;49099;28.428;-16.488;2023-05-10T11:39:28;33.55;;;5.65;;
63008;SDS011;49099;28.428;-16.488;2023-05-10T11:41:57;32.90;;;6.00;;
63008;SDS011;49099;28.428;-16.488;2023-05-10T11:44:33;31.95;;;5.82;;
63008;SDS011;49099;28.428;-16.488;2023-05-10T11:47:01;45.30;;;6.53;;
63008;SDS011;49099;28.428;-16.488;2023-05-10T11:49:28;33.53;;;5.82;;
63008;SDS011;49099;28.428;-16.488;2023-05-10T11:52:05;37.15;;;6.03;;
63008;SDS011;49099;28.428;-16.488;2023-05-10T11:54:33;33.65;;;5.85;;
63008;SDS011;49099;28.428;-16.488;2023-05-10T11:57:03;39.05;;;6.80;;
63008;SDS011;49099;28.428;-16.488;2023-05-10T11:59:31;37.95;;;6.63;;
63008;SDS011;49099;28.428;-16.488;2023-05-10T12:01:58;30.05;;;6.15;;
63008;SDS011;49099;28.428;-16.488;2023-05-10T12:04:25;42.45;;;6.78;;
63008;SDS011;49099;28.428;-16.488;2023-05-10T12:06:56;44.00;;;7.30;;
63008;SDS011;49099;28.428;-16.488;2023-05-10T12:09:23;40.38;;;6.68;;
63008;SDS011;49099;28.428;-16.488;2023-05-10T12:12:08;33.85;;;5.70;;
63008;SDS011;49099;28.428;-16.488;2023-05-10T12:14:35;30.42;;;6.13;;
63008;SDS011;49099;28.428;-16.488;2023-05-10T12:17:02;35.72;;;5.55;;
63008;SDS011;49099;28.428;-16.488;2023-05-10T12:19:36;36.42;;;6.60;;
63008;SDS011;49099;28.428;-16.488;2023-05-10T12:22:05;42.95;;;7.10;;
63008;SDS011;49099;28.428;-16.488;2023-05-10T12:24:36;42.90;;;6.95;;
63008;SDS011;49099;28.428;-16.488;2023-05-10T12:27:05;37.50;;;6.95;;
63008;SDS011;49099;28.428;-16.488;2023-05-10T12:29:52;39.67;;;6.32;;
63008;SDS011;49099;28.428;-16.488;2023-05-10T12:32:18;38.85;;;6.35;;
63008;SDS011;49099;28.428;-16.488;2023-05-10T12:34:46;40.65;;;6.53;;
63008;SDS011;49099;28.428;-16.488;2023-05-10T12:37:14;41.00;;;6.75;;
63008;SDS011;49099;28.428;-16.488;2023-05-10T12:39:41;35.65;;;6.43;;
63008;SDS011;49099;28.428;-16.488;2023-05-10T12:42:10;37.90;;;6.30;;
63008;SDS011;49099;28.428;-16.488;2023-05-10T12:44:38;37.45;;;6.78;;
63008;SDS011;49099;28.428;-16.488;2023-05-10T12:47:05;44.25;;;7.22;;
63008;SDS011;49099;28.428;-16.488;2023-05-10T12:49:32;38.35;;;5.82;;
63008;SDS011;49099;28.428;-16.488;2023-05-10T12:52:00;41.78;;;6.70;;
63008;SDS011;49099;28.428;-16.488;2023-05-10T12:54:27;37.67;;;6.65;;
63008;SDS011;49099;28.428;-16.488;2023-05-10T12:56:54;39.38;;;6.93;;
63008;SDS011;49099;28.428;-16.488;2023-05-10T12:59:21;44.88;;;6.90;;
63008;SDS011;49099;28.428;-16.488;2023-05-10T13:01:49;32.85;;;6.60;;
63008;SDS011;49099;28.428;-16.488;2023-05-10T13:04:16;41.47;;;6.90;;
63008;SDS011;49099;28.428;-16.488;2023-05-10T13:06:43;43.92;;;6.82;;
63008;SDS011;49099;28.428;-16.488;2023-05-10T13:09:10;39.33;;;6.90;;
63008;SDS011;49099;28.428;-16.488;2023-05-10T13:11:37;34.05;;;6.65;;
63008;SDS011;49099;28.428;-16.488;2023-05-10T13:14:04;35.60;;;6.25;;
63008;SDS011;49099;28.428;-16.488;2023-05-10T13:16:32;33.30;;;6.60;;
63008;SDS011;49099;28.428;-16.488;2023-05-10T13:18:59;40.88;;;7.15;;
63008;SDS011;49099;28.428;-16.488;2023-05-10T13:21:26;32.45;;;6.63;;
63008;SDS011;49099;28.428;-16.488;2023-05-10T13:23:53;40.35;;;7.18;;
63008;SDS011;49099;28.428;-16.488;2023-05-10T13:26:20;35.40;;;6.90;;
63008;SDS011;49099;28.428;-16.488;2023-05-10T13:28:47;36.00;;;6.20;;
63008;SDS011;49099;28.428;-16.488;2023-05-10T13:31:16;41.13;;;6.72;;
63008;SDS011;49099;28.428;-16.488;2023-05-10T13:33:43;46.35;;;7.50;;
63008;SDS011;49099;28.428;-16.488;2023-05-10T13:36:10;39.80;;;6.50;;
63008;SDS011;49099;28.428;-16.488;2023-05-10T13:38:37;42.15;;;6.63;;
63008;SDS011;49099;28.428;-16.488;2023-05-10T13:41:04;42.58;;;6.60;;
63008;SDS011;49099;28.428;-16.488;2023-05-10T13:43:31;38.22;;;6.47;;
63008;SDS011;49099;28.428;-16.488;2023-05-10T13:45:58;43.25;;;7.43;;
63008;SDS011;49099;28.428;-16.488;2023-05-10T13:48:26;37.92;;;6.65;;
63008;SDS011;49099;28.428;-16.488;2023-05-10T13:50:53;37.70;;;6.50;;
63008;SDS011;49099;28.428;-16.488;2023-05-10T13:53:20;39.63;;;6.57;;
63008;SDS011;49099;28.428;-16.488;2023-05-10T13:55:47;43.58;;;7.55;;
63008;SDS011;49099;28.428;-16.488;2023-05-10T13:58:14;38.70;;;6.35;;
63008;SDS011;49099;28.428;-16.488;2023-05-10T14:00:41;46.60;;;7.45;;
63008;SDS011;49099;28.428;-16.488;2023-05-10T14:03:08;45.05;;;7.93;;
63008;SDS011;49099;28.428;-16.488;2023-05-10T14:05:38;42.75;;;6.60;;
63008;SDS011;49099;28.428;-16.488;2023-05-10T14:08:05;35.80;;;6.57;;
63008;SDS011;49099;28.428;-16.488;2023-05-10T14:10:32;35.90;;;6.32;;
63008;SDS011;49099;28.428;-16.488;2023-05-10T14:12:59;41.03;;;7.30;;
63008;SDS011;49099;28.428;-16.488;2023-05-10T14:15:26;39.83;;;7.38;;
63008;SDS011;49099;28.428;-16.488;2023-05-10T14:17:54;45.35;;;6.93;;
63008;SDS011;49099;28.428;-16.488;2023-05-10T14:20:21;39.42;;;6.70;;
63008;SDS011;49099;28.428;-16.488;2023-05-10T14:22:48;41.40;;;7.15;;
63008;SDS011;49099;28.428;-16.488;2023-05-10T14:25:16;38.72;;;7.55;;
63008;SDS011;49099;28.428;-16.488;2023-05-10T14:27:43;37.72;;;6.65;;
63008;SDS011;49099;28.428;-16.488;2023-05-10T14:30:10;46.15;;;7.13;;
63008;SDS011;49099;28.428;-16.488;2023-05-10T14:32:38;38.95;;;6.60;;
63008;SDS011;49099;28.428;-16.488;2023-05-10T14:35:05;45.88;;;7.88;;
63008;SDS011;49099;28.428;-16.488;2023-05-10T14:37:33;39.83;;;6.78;;
63008;SDS011;49099;28.428;-16.488;2023-05-10T14:40:00;42.03;;;6.53;;
63008;SDS011;49099;28.428;-16.488;2023-05-10T14:42:27;34.35;;;6.22;;
63008;SDS011;49099;28.428;-16.488;2023-05-10T14:44:54;38.58;;;7.28;;
63008;SDS011;49099;28.428;-16.488;2023-05-10T14:47:22;42.25;;;6.90;;
63008;SDS011;49099;28.428;-16.488;2023-05-10T14:49:49;44.08;;;7.57;;
63008;SDS011;49099;28.428;-16.488;2023-05-10T14:52:16;44.20;;;7.85;;
63008;SDS011;49099;28.428;-16.488;2023-05-10T14:54:43;52.25;;;7.40;;